ADDS METAR Data INFO
IDs: Format: Raw Decoded Include TAF

Data at: 0753 UTC 17 Oct 2017

KAXX 170735Z AUTO 00000KT 10SM CLR M06/M08 A3050 RMK AO2 T10561080
KAXX 170715Z AUTO 00000KT 10SM CLR M05/M08 A3050 RMK AO2 T10551077
KAXX 170655Z AUTO 00000KT 10SM CLR M03/M07 A3051 RMK AO2 T10291072
KAXX 170635Z AUTO 00000KT 10SM CLR M03/M07 A3050 RMK AO2 T10301075
KAXX 170615Z AUTO 14004KT 10SM CLR M02/M07 A3050 RMK AO2 T10181074
KAXX 170555Z AUTO 00000KT 10SM CLR M02/M07 A3050 RMK AO2 T10241075 10151 21024 401801114
KAXX 170535Z AUTO 00000KT 10SM CLR 00/M07 A3050 RMK AO2 T10051074
KAXX 170515Z AUTO 00000KT 10SM CLR M02/M07 A3050 RMK AO2 T10171074
KAXX 170455Z AUTO 00000KT 10SM CLR M01/M07 A3050 RMK AO2 T10111075
KAXX 170435Z AUTO 18004KT 10SM CLR 00/M07 A3049 RMK AO2 T10051075
KAXX 170415Z AUTO 00000KT 10SM CLR 00/M07 A3049 RMK AO2 T10031072
KAXX 170355Z AUTO 19004KT 10SM CLR M02/M07 A3049 RMK AO2 T10181070
KAXX 170335Z AUTO 27004KT 10SM CLR M01/M07 A3050 RMK AO2 T10111066
KAXX 170315Z AUTO 16005KT 10SM CLR M01/M07 A3050 RMK AO2 T10071068
KAXX 170255Z AUTO 00000KT 10SM CLR 01/M07 A3050 RMK AO2 T00081073
KAXX 170235Z AUTO 00000KT 10SM CLR 01/M07 A3049 RMK AO2 T00131073
KAXX 170215Z AUTO 00000KT 10SM CLR 03/M07 A3049 RMK AO2 T00281070
KAXX 170155Z AUTO 18004KT 10SM CLR 04/M08 A3049 RMK AO2 T00361078
KAXX 170135Z AUTO 00000KT 10SM CLR 03/M07 A3049 RMK AO2 T00331075
KAXX 170115Z AUTO 00000KT 10SM CLR 04/M07 A3049 RMK AO2 T00361071
KAXX 170055Z AUTO 00000KT 10SM CLR 11/M11 A3048 RMK AO2 T01051115
KAXX 170035Z AUTO 13005KT 10SM CLR 10/M09 A3047 RMK AO2 T00971092
KAXX 170015Z AUTO 19007KT 10SM CLR 13/M10 A3047 RMK AO2 T01301105
KAXX 162355Z AUTO 24005KT 10SM CLR 15/M12 A3047 RMK AO2 T01521119 10180 20152
KAXX 162335Z AUTO 24007KT 10SM CLR 16/M11 A3047 RMK AO2 T01581110
KAXX 162315Z AUTO 29006KT 10SM CLR 17/M11 A3047 RMK AO2 T01651106
KAXX 162255Z AUTO 27009G14KT 10SM CLR 17/M11 A3047 RMK AO2 T01671109
KAXX 162235Z AUTO 26012G15KT 10SM CLR 17/M11 A3047 RMK AO2 T01701109
KAXX 162215Z AUTO 24012G17KT 10SM CLR 17/M12 A3047 RMK AO2 T01741118
KAXX 162155Z AUTO 25012G17KT 10SM CLR 18/M13 A3048 RMK AO2 T01761127
KAXX 162130Z AUTO 28015G18KT 10SM CLR 18/M14 A3048 RMK AO2 T01751141
KAXX 162115Z AUTO 25011G17KT 10SM CLR 18/M15 A3048 RMK AO2 T01771146
KAXX 162055Z AUTO 24013G19KT 10SM CLR 18/M16 A3048 RMK AO2 T01771163
KAXX 162035Z AUTO 24013G17KT 10SM CLR 18/M15 A3048 RMK AO2 T01791151
KAXX 162015Z AUTO 24010G19KT 10SM CLR 18/M15 A3050 RMK AO2 T01751150
KAXX 161955Z AUTO 24013G19KT 10SM CLR 18/M14 A3050 RMK AO2 T01751145
KAXX 161935Z AUTO 25011G15KT 10SM CLR 17/M14 A3051 RMK AO2 T01721145
KAXX 161915Z AUTO 25013G17KT 10SM CLR 17/M14 A3052 RMK AO2 T01711141
KAXX 161855Z AUTO 28012G16KT 10SM CLR 17/M14 A3053 RMK AO2 T01681139
KAXX 161835Z AUTO 27014G17KT 10SM CLR 17/M14 A3054 RMK AO2 T01661145
KAXX 161815Z AUTO 27013G18KT 10SM CLR 17/M13 A3055 RMK AO2 T01651132
KAXX 161755Z AUTO 25009G14KT 10SM CLR 16/M14 A3055 RMK AO2 T01581137 10159 21114
KAXX 161735Z AUTO 24011G15KT 10SM CLR 16/M14 A3056 RMK AO2 T01561142
KAXX 161715Z AUTO 21006KT 10SM CLR 15/M12 A3056 RMK AO2 T01461118
KAXX 161655Z AUTO 00000KT 10SM CLR 12/M05 A3056 RMK AO2 T01151055
KAXX 161635Z AUTO 00000KT 10SM CLR 09/M06 A3058 RMK AO2 T00881063
KAXX 161615Z AUTO 00000KT 10SM CLR 06/M07 A3058 RMK AO2 T00581069
KAXX 161555Z AUTO 00000KT 10SM CLR 04/M08 A3059 RMK AO2 T00411080
KAXX 161535Z AUTO 00000KT 10SM CLR 02/M06 A3059 RMK AO2 T00191056
KAXX 161515Z AUTO 00000KT 10SM CLR 00/M06 A3060 RMK AO2 T10031059
KAXX 161455Z AUTO 00000KT 10SM CLR M02/M06 A3060 RMK AO2 T10161063
KAXX 161435Z AUTO 00000KT 10SM CLR M03/M07 A3060 RMK AO2 T10341071
KAXX 161415Z AUTO 00000KT 10SM CLR M05/M08 A3060 RMK AO2 T10541076
KAXX 161355Z AUTO 00000KT 10SM CLR M08/M10 A3059 RMK AO2 T10841098
KAXX 161335Z AUTO 00000KT 10SM CLR M10/M12 A3059 RMK AO2 T11011119
KAXX 161315Z AUTO 00000KT 10SM CLR M11/M12 A3059 RMK AO2 T11081122
KAXX 161255Z AUTO 00000KT 10SM CLR M11/M13 A3059 RMK AO2 T11141130
KAXX 161235Z AUTO 00000KT 10SM CLR M10/M12 A3059 RMK AO2 T11031121
KAXX 161215Z AUTO 00000KT 10SM CLR M10/M12 A3059 RMK AO2 T11031121
KAXX 161155Z AUTO 00000KT 10SM CLR M10/M12 A3059 RMK AO2 T10971116 11052 21104
KAXX 161135Z AUTO 00000KT 10SM CLR M10/M11 A3059 RMK AO2 T10961114
KAXX 161115Z AUTO 00000KT 10SM CLR M10/M12 A3058 RMK AO2 T11001120
KAXX 161055Z AUTO 00000KT 10SM CLR M09/M11 A3059 RMK AO2 T10911107
KAXX 161035Z AUTO 00000KT 10SM CLR M10/M11 A3059 RMK AO2 T10981114
KAXX 161015Z AUTO 00000KT 10SM CLR M10/M11 A3059 RMK AO2 T10971111
KAXX 160955Z AUTO 00000KT 10SM CLR M10/M11 A3059 RMK AO2 T10961113
KAXX 160935Z AUTO 00000KT 10SM CLR M09/M11 A3059 RMK AO2 T10951110
KAXX 160915Z AUTO 00000KT 10SM CLR M09/M11 A3059 RMK AO2 T10881107
KAXX 160855Z AUTO 00000KT 10SM CLR M08/M10 A3059 RMK AO2 T10791104
KAXX 160835Z AUTO 00000KT 10SM CLR M08/M10 A3059 RMK AO2 T10811102
KAXX 160815Z AUTO 00000KT 10SM CLR M07/M09 A3060 RMK AO2 T10741095
KAXX 160755Z AUTO 00000KT 10SM CLR M08/M09 A3060 RMK AO2 T10761095
KAXX 160735Z AUTO 00000KT 10SM CLR M07/M09 A3060 RMK AO2 T10721092
KAXX 160715Z AUTO 00000KT 10SM CLR M08/M10 A3060 RMK AO2 T10781098
KAXX 160655Z AUTO 00000KT 10SM CLR M07/M09 A3060 RMK AO2 T10671094
KAXX 160635Z AUTO 00000KT 10SM CLR M07/M09 A3060 RMK AO2 T10701090
KAXX 160615Z AUTO 00000KT 10SM CLR M07/M09 A3060 RMK AO2 T10711090
KAXX 160555Z AUTO 14003KT 10SM CLR M06/M08 A3061 RMK AO2 T10581085 10135 21066 401681112
KAXX 160535Z AUTO 00000KT 10SM CLR M06/M08 A3061 RMK AO2 T10601083
KAXX 160515Z AUTO 00000KT 10SM CLR M05/M08 A3061 RMK AO2 T10541082
KAXX 160455Z AUTO 00000KT 10SM CLR M05/M08 A3061 RMK AO2 T10521079
KAXX 160435Z AUTO 00000KT 10SM CLR M05/M07 A3061 RMK AO2 T10511075
KAXX 160415Z AUTO 00000KT 10SM CLR M03/M07 A3061 RMK AO2 T10341075
KAXX 160355Z AUTO 00000KT 10SM CLR M04/M07 A3060 RMK AO2 T10431067
KAXX 160335Z AUTO 00000KT 10SM CLR M02/M08 A3060 RMK AO2 T10181077
KAXX 160315Z AUTO 00000KT 10SM CLR M02/M07 A3059 RMK AO2 T10191075
KAXX 160255Z AUTO 00000KT 10SM CLR M01/M07 A3059 RMK AO2 T10091075
KAXX 160230Z AUTO 00000KT 10SM CLR 00/M08 A3059 RMK AO2 T10031081
KAXX 160215Z AUTO 19004KT 10SM CLR M01/M07 A3059 RMK AO2 T10121074
KAXX 160155Z AUTO 18003KT 10SM CLR 01/M08 A3058 RMK AO2 T00071082
KAXX 160135Z AUTO 18003KT 10SM CLR 03/M08 A3058 RMK AO2 T00251082
KAXX 160110Z AUTO 15005KT 10SM CLR 04/M09 A3056 RMK AO2 T00441095
KAXX 160055Z AUTO 17005KT 10SM CLR 06/M11 A3055 RMK AO2 T00601112
KAXX 160035Z AUTO 18006KT 10SM CLR 08/M13 A3054 RMK AO2 T00831126
KAXX 160015Z AUTO 18006KT 10SM CLR 11/M14 A3054 RMK AO2 T01071142
KAXX 152355Z AUTO 00000KT 10SM CLR 14/M15 A3054 RMK AO2 T01351150 10168 20134
KAXX 152330Z AUTO 29008KT 10SM CLR 15/M15 A3053 RMK AO2 T01451152
KAXX 152315Z AUTO 28010KT 10SM CLR 15/M15 A3053 RMK AO2 T01501155
KAXX 152250Z AUTO 27010KT 10SM CLR 16/M14 A3053 RMK AO2 T01601143
KAXX 152235Z AUTO 26010G17KT 10SM CLR 16/M15 A3052 RMK AO2 T01601148
KAXX 152215Z AUTO 27012KT 10SM CLR 16/M15 A3052 RMK AO2 T01631147
KAXX 152155Z AUTO 27015KT 10SM CLR 17/M15 A3052 RMK AO2 T01651152
KAXX 152135Z AUTO 28013KT 10SM CLR 17/M15 A3052 RMK AO2 T01661146
KAXX 152115Z AUTO 27017KT 10SM CLR 17/M16 A3052 RMK AO2 T01661157
KAXX 152055Z AUTO 26016G22KT 10SM CLR 17/M16 A3052 RMK AO2 T01651157
KAXX 152035Z AUTO 27017G21KT 10SM CLR 17/M16 A3053 RMK AO2 T01681156
KAXX 152015Z AUTO 27016G22KT 10SM CLR 17/M16 A3053 RMK AO2 T01671158
KAXX 151955Z AUTO 27016KT 10SM CLR 16/M16 A3054 RMK AO2 T01621161